Station info - map view · info · telemetry · weather · raw · status · beacons · messages · bulletins · browse · moving · my account
Callsign, ship name or locator: Clear       
It is possible to search using wildcards (*?) after a prefix. Example: OH*
APRS station KV3T-9 - show graphs
Map loading...
Comment: 442.725MHz T114 +500
Mic-E message: En route
Location: 42°02.67' N 87°44.60' W - locator EN62DB00TQ - show map - static map
0.9 miles Northwest bearing 326° from Skokie, Cook County, Illinois, United States [?]
2.0 miles East bearing 82° from Morton Grove, Cook County, Illinois, United States
14.3 miles North bearing 340° from Chicago, Cook County, Illinois, United States
69.2 miles South bearing 173° from Milwaukee, Milwaukee County, Wisconsin, United States
Last position: 2018-07-21 22:19:27 EDT (1h ago)
2018-07-21 21:19:27 CDT local time at Skokie, United States [?]
Altitude: 623 ft
Course: 182°
Speed: 6 MPH
Device: Kenwood: TM-D710 (rig)
Last path: KV3T-9>TR0R6W via WIDE1-1,WIDE2-1,qAR,K9IQP-13 (good)
Positions stored: 5269
Packet rate: 92 seconds between packets on average during 1374 seconds.
Other SSIDs: KV3T KV3T-10 KV3T-7
Stations near current position of KV3T-9 - show more
callsign distance last heard - EDT      callsign distance last heard - EDT
WD9GYM0.9 miles 319°2018-07-21 22:59:19 KX9M-101.4 miles 329°2018-07-09 21:58:23
FW19831.8 miles 214°2018-07-21 23:08:38 WA9IVH-92.2 miles 32°2018-07-21 18:28:20
KA9UAJ2.4 miles 309°2018-07-21 23:18:56 NS9RC-102.7 miles 291°2018-07-21 23:01:27
N9DRF2.8 miles 296°2018-07-21 17:33:56 KD9EQB-73.0 miles 46°2018-07-12 13:39:49
KC9NDO-i3.1 miles 75°2018-07-14 15:09:36 KC9NDO-93.1 miles 75°2018-07-21 19:58:44
KU9Z3.1 miles 123°2018-07-21 22:45:49 KU9Z B3.1 miles 123°2018-07-21 23:12:08
KU9Z-B3.1 miles 123°2018-07-21 23:12:18 KA9HHH3.5 miles 146°2018-07-14 01:09:47
003669193 US3.8 miles 53°2018-07-21 23:18:07 KC9USC-113.9 miles 324°2018-07-21 19:12:38
W9GAK-94.0 miles 330°2018-07-21 20:15:29 EW28714.1 miles 6°2018-07-21 23:19:05
W9GAK-74.1 miles 330°2018-07-19 03:12:12 AA5UK-74.1 miles 342°2018-07-07 15:58:09
Stations which heard KV3T-9 directly on radio –
callsign pkts first heard - EDT last heard longest (tx => rx) longest at - EDT
KA9QPN-15 5 2018-07-08 19:51:38 2018-07-08 20:13:24 EN51OV > EN51QP 19.4 miles 155° 2018-07-08 19:51:38
N0RXD 1 2018-07-08 17:28:07 2018-07-08 17:28:07 EN41HP > EN41GP 4.7 miles 248° 2018-07-08 17:28:07
KC0NFA-2 10 2018-07-08 16:06:47 2018-07-08 16:32:10 EN31HQ > EN31LQ 16.9 miles 85° 2018-07-08 16:06:47
NS9RC 18 2018-07-10 19:13:48 2018-07-21 22:18:28 EN61EX > EN62CC 11.0 miles 317° 2018-07-16 19:24:34
W0NWS 21 2018-07-01 21:25:34 2018-07-08 13:29:40 EN11UB > EN11TH 17.5 miles 347° 2018-07-08 13:29:40
K0HAM-6 11 2018-07-08 13:24:47 2018-07-08 14:46:14 EN10TX > EN21LJ 74.1 miles 69° 2018-07-08 13:24:47
WA9KJE 41 2018-07-08 21:02:22 2018-07-21 22:17:01 EN61EV > EN61DX 6.6 miles 330° 2018-07-16 19:30:32
KE6DZD 4 2018-07-08 13:35:14 2018-07-08 13:53:11 EN11WD > EN21AC 10.5 miles 100° 2018-07-08 13:35:14
AB9FX 72 2018-07-08 20:44:01 2018-07-21 22:14:52 EN62BD > EN61BX 12.7 miles 179° 2018-07-21 13:19:12
WA9IVH 52 2018-07-10 15:19:01 2018-07-21 18:29:03 EN52WE > EN62CC 17.1 miles 111° 2018-07-21 13:40:05
WL7CLI 4 2018-07-08 15:54:45 2018-07-08 16:04:45 EN31DP > EN31FP 7.1 miles 102° 2018-07-08 15:54:45
K0HAM-10 12 2018-07-08 17:08:09 2018-07-08 17:34:09 EN41BQ > EN41HS 25.3 miles 76° 2018-07-08 17:08:09
K0HAM-9 9 2018-07-08 16:28:04 2018-07-08 16:58:09 EN31NQ > EN31TV 26.9 miles 60° 2018-07-08 16:28:04
WA9LT 11 2018-07-08 18:08:14 2018-07-08 18:39:59 EN41TO > EN41UL 9.7 miles 136° 2018-07-08 18:08:14
N0BKB-1 9 2018-07-08 14:49:27 2018-07-08 15:27:53 EN21QL > EN21VE 30.6 miles 131° 2018-07-08 14:49:27
N0MPM-4 3 2018-07-08 16:17:55 2018-07-08 16:21:59 EN31KQ > EN31MK 19.7 miles 152° 2018-07-08 16:17:55
NS9RC-5 1 2018-07-21 17:38:29 2018-07-21 17:38:29 EN62AE > EN62CF 5.3 miles 79° 2018-07-21 17:38:29
N0AN-1 2 2018-07-08 14:22:13 2018-07-08 15:33:39 EN21IL > EN22XC 78.8 miles 58° 2018-07-08 14:22:13
WA0ROI-1 2 2018-07-08 15:49:36 2018-07-08 16:00:46 EN31FP > EN31DU 16.4 miles 328° 2018-07-08 16:00:46
W0AK-1 7 2018-07-08 15:47:00 2018-07-08 16:02:48 EN31GP > EN31EN 11.3 miles 229° 2018-07-08 16:02:48
K0USA 4 2018-07-08 13:33:41 2018-07-08 13:59:48 EN11VC > EN21AG 16.3 miles 56° 2018-07-08 13:33:41
N9ZE-10 9 2018-07-08 20:31:43 2018-07-16 19:06:59 EN62DA > EN61AV 13.8 miles 233° 2018-07-16 19:03:53
KC9RGZ-10 4 2018-07-08 17:46:09 2018-07-08 18:33:42 EN41TN > EN41PJ 20.4 miles 235° 2018-07-08 18:33:42
W0RAY 5 2018-07-08 15:45:27 2018-07-08 15:50:45 EN31CO > EN31BP 5.3 miles 308° 2018-07-08 15:46:29
K8OEC-10 1 2018-07-10 15:19:35 2018-07-10 15:19:35 EN62DB > EN63VB 103.3 miles 47° 2018-07-10 15:19:35
KC9RGZ-11 6 2018-07-08 17:52:10 2018-07-08 18:37:00 EN41TM > EN41RO 13.6 miles 294° 2018-07-08 18:37:00
W8MAI-15 1 2018-07-16 18:48:46 2018-07-16 18:48:46 EN62DB > EN62VB 77.3 miles 89° 2018-07-16 18:48:46
W9NTN-2 6 2018-07-08 19:10:39 2018-07-08 19:35:01 EN51ES > EN51JP 22.6 miles 109° 2018-07-08 19:10:39
KC9WPR-3 1 2018-07-08 20:31:00 2018-07-08 20:31:00 EN51XT > EN61AT 2.2 miles 140° 2018-07-08 20:31:00
N0LSR-1 23 2018-07-08 20:52:10 2018-07-21 17:51:21 EN62DB > EN62BC 8.5 miles 296° 2018-07-13 14:32:11
N9ETH 1 2018-07-21 17:18:45 2018-07-21 17:18:45 EN52WE > EN52WG 6.2 miles 358° 2018-07-21 17:18:45
K9ABR-10 2 2018-07-08 20:30:58 2018-07-21 15:46:48 EN51XT > EN52WA 16.2 miles 338° 2018-07-08 20:30:58
K9ZQ-8 2 2018-07-08 19:32:57 2018-07-08 19:34:58 EN51LV > EN51JL 30.1 miles 196° 2018-07-08 19:34:58
W0KBS-10 137 2018-07-02 15:27:30 2018-07-08 13:14:45 EN10QV > EN10QS 10.0 miles 170° 2018-07-02 15:27:30
K0USA-15 5 2018-07-02 15:16:40 2018-07-08 13:31:41 EN11QC > EN11XA 29.1 miles 98° 2018-07-02 15:16:40
KC9SQR-15 2 2018-07-08 19:28:57 2018-07-08 19:37:18 EN51JU > EN52LG 28.8 miles 13° 2018-07-08 19:28:57
K9IQP-13 33 2018-07-12 15:03:49 2018-07-21 22:19:27 EN62DA > EN62AH 21.1 miles 327° 2018-07-16 18:51:32
N0UP 3 2018-07-08 13:41:08 2018-07-08 13:50:19 EN21BF > EN11XE 8.5 miles 238° 2018-07-08 13:50:19
WD9GYM 24 2018-07-08 20:55:38 2018-07-21 22:18:57 EN62DA > EN53TA 75.1 miles 336° 2018-07-16 18:51:26
KW2DX-3 5 2018-07-08 18:50:41 2018-07-08 19:02:31 EN51BS > EN41VV 19.4 miles 298° 2018-07-08 19:02:31
W9AFB-10 2 2018-07-08 20:15:35 2018-07-08 20:17:35 EN51TT > EN51UV 9.1 miles 32° 2018-07-08 20:15:35
MINDEN 8 2018-07-02 15:13:23 2018-07-08 14:16:16 EN11QD > EN21FJ 59.9 miles 73° 2018-07-02 15:13:23
K9PC-1 7 2018-07-10 15:24:11 2018-07-21 18:58:35 EN62DB > EN61LM 51.9 miles 135° 2018-07-10 19:19:37
N3BRI-10 3 2018-07-08 13:37:13 2018-07-08 13:39:46 EN11WE > EN11XE 3.1 miles 53° 2018-07-08 13:37:13
W0GQ-1 1 2018-07-08 17:12:10 2018-07-08 17:12:10 EN41DQ > EN42DB 25.3 miles 5° 2018-07-08 17:12:10
AE0BB 7 2018-07-08 15:31:39 2018-07-08 15:46:59 EN31CO > EN31AM 9.9 miles 244° 2018-07-08 15:46:59
KB9MTD 5 2018-07-08 19:13:45 2018-07-08 19:21:03 EN51FS > EN51GU 5.7 miles 42° 2018-07-08 19:13:45
KC9JAO-5 3 2018-07-08 18:00:08 2018-07-08 18:04:08 EN41SO > EN41RN 4.8 miles 235° 2018-07-08 18:04:08

Only position packets which were originated by the station are shown here. The range statistics show some extra long hops, because some digipeaters do not correctly add themselves to the digipeater path. Please check the raw packets.
About this site
This page shows real-time information collected from the Automatic Position Reporting System Internet network (APRS-IS). APRS is used by amateur (ham) radio operators to transmit real-time position information, weather data, telemetry and messages over the radio. A vehicle equipped with a GPS receiver, a VHF transmitter or HF transceiver and a small computer device called a tracker transmits it's location, speed and course in a small data packet, which is then received by a nearby iGate receiving site which forwards the packet on the Internet. Systems connected to the Internet can send information on the APRS-IS without a radio transmitter, or collect and display information transmitted anywhere in the world.
FAQ · Blog · Discussion group · Linking to aprs.fi · AIS sites · Service status · Database statistics · Advertising on aprs.fi · Technical details · API · Change log · Planned changes · Credits and thanks · Terms Of Service · iPhone/iPad APRS